sensor_id;sensor_type;location;lat;lon;timestamp;P1;durP1;ratioP1;P2;durP2;ratioP2
45940;SDS011;31858;46.008;8.978;2023-06-26T00:00:31;4.25;;;3.25;;
45940;SDS011;31858;46.008;8.978;2023-06-26T00:10:34;4.18;;;3.03;;
45940;SDS011;31858;46.008;8.978;2023-06-26T00:20:36;5.85;;;3.80;;
45940;SDS011;31858;46.008;8.978;2023-06-26T00:30:39;3.15;;;2.90;;
45940;SDS011;31858;46.008;8.978;2023-06-26T00:40:40;4.00;;;3.05;;
45940;SDS011;31858;46.008;8.978;2023-06-26T00:50:43;6.43;;;3.60;;
45940;SDS011;31858;46.008;8.978;2023-06-26T01:00:45;3.20;;;2.90;;
45940;SDS011;31858;46.008;8.978;2023-06-26T01:10:48;3.53;;;3.20;;
45940;SDS011;31858;46.008;8.978;2023-06-26T01:20:50;6.65;;;2.97;;
45940;SDS011;31858;46.008;8.978;2023-06-26T01:30:53;4.88;;;3.25;;
45940;SDS011;31858;46.008;8.978;2023-06-26T01:40:55;6.40;;;3.45;;
45940;SDS011;31858;46.008;8.978;2023-06-26T01:50:59;5.57;;;3.42;;
45940;SDS011;31858;46.008;8.978;2023-06-26T02:01:01;3.50;;;2.97;;
45940;SDS011;31858;46.008;8.978;2023-06-26T02:11:04;3.88;;;3.42;;
45940;SDS011;31858;46.008;8.978;2023-06-26T02:21:05;3.42;;;3.13;;
45940;SDS011;31858;46.008;8.978;2023-06-26T02:31:09;4.13;;;3.33;;
45940;SDS011;31858;46.008;8.978;2023-06-26T02:41:10;4.50;;;3.30;;
45940;SDS011;31858;46.008;8.978;2023-06-26T02:51:13;4.68;;;3.53;;
45940;SDS011;31858;46.008;8.978;2023-06-26T03:01:15;4.28;;;3.88;;
45940;SDS011;31858;46.008;8.978;2023-06-26T03:11:18;3.33;;;3.03;;
45940;SDS011;31858;46.008;8.978;2023-06-26T03:21:19;3.63;;;3.25;;
45940;SDS011;31858;46.008;8.978;2023-06-26T03:31:22;6.10;;;3.60;;
45940;SDS011;31858;46.008;8.978;2023-06-26T03:41:24;3.83;;;3.25;;
45940;SDS011;31858;46.008;8.978;2023-06-26T03:51:27;5.28;;;3.50;;
45940;SDS011;31858;46.008;8.978;2023-06-26T04:01:29;4.13;;;3.50;;
45940;SDS011;31858;46.008;8.978;2023-06-26T04:11:32;3.70;;;3.35;;
45940;SDS011;31858;46.008;8.978;2023-06-26T04:21:33;4.30;;;3.45;;
45940;SDS011;31858;46.008;8.978;2023-06-26T04:31:36;3.88;;;3.58;;
45940;SDS011;31858;46.008;8.978;2023-06-26T04:41:39;4.22;;;3.47;;
45940;SDS011;31858;46.008;8.978;2023-06-26T04:51:42;3.97;;;3.10;;
45940;SDS011;31858;46.008;8.978;2023-06-26T05:01:43;3.45;;;3.15;;
45940;SDS011;31858;46.008;8.978;2023-06-26T05:11:49;7.40;;;3.50;;
45940;SDS011;31858;46.008;8.978;2023-06-26T05:21:51;3.50;;;3.20;;
45940;SDS011;31858;46.008;8.978;2023-06-26T05:31:55;5.47;;;3.35;;
45940;SDS011;31858;46.008;8.978;2023-06-26T05:41:58;4.28;;;3.70;;
45940;SDS011;31858;46.008;8.978;2023-06-26T05:52:01;3.53;;;3.22;;
45940;SDS011;31858;46.008;8.978;2023-06-26T06:02:03;3.95;;;3.50;;
45940;SDS011;31858;46.008;8.978;2023-06-26T06:12:07;4.13;;;3.53;;
45940;SDS011;31858;46.008;8.978;2023-06-26T06:22:09;3.90;;;3.30;;
45940;SDS011;31858;46.008;8.978;2023-06-26T06:32:12;5.18;;;3.90;;
45940;SDS011;31858;46.008;8.978;2023-06-26T06:42:14;7.75;;;4.50;;
45940;SDS011;31858;46.008;8.978;2023-06-26T06:52:17;6.88;;;3.92;;
45940;SDS011;31858;46.008;8.978;2023-06-26T07:02:19;9.82;;;4.15;;
45940;SDS011;31858;46.008;8.978;2023-06-26T07:12:22;4.07;;;3.67;;
45940;SDS011;31858;46.008;8.978;2023-06-26T07:22:24;5.38;;;4.10;;
45940;SDS011;31858;46.008;8.978;2023-06-26T07:32:28;4.47;;;3.83;;
45940;SDS011;31858;46.008;8.978;2023-06-26T07:42:29;7.32;;;4.43;;
45940;SDS011;31858;46.008;8.978;2023-06-26T07:52:33;8.20;;;4.63;;
45940;SDS011;31858;46.008;8.978;2023-06-26T08:02:34;5.63;;;4.47;;
45940;SDS011;31858;46.008;8.978;2023-06-26T08:12:37;5.30;;;4.80;;
45940;SDS011;31858;46.008;8.978;2023-06-26T08:22:42;5.53;;;4.10;;
45940;SDS011;31858;46.008;8.978;2023-06-26T11:23:04;9.10;;;4.75;;
45940;SDS011;31858;46.008;8.978;2023-06-26T11:33:07;11.23;;;4.82;;
45940;SDS011;31858;46.008;8.978;2023-06-26T11:43:11;4.50;;;4.03;;
45940;SDS011;31858;46.008;8.978;2023-06-26T11:53:14;7.15;;;4.30;;
45940;SDS011;31858;46.008;8.978;2023-06-26T12:03:17;6.47;;;3.85;;
45940;SDS011;31858;46.008;8.978;2023-06-26T12:13:19;5.32;;;4.38;;
45940;SDS011;31858;46.008;8.978;2023-06-26T12:23:22;4.85;;;4.00;;
45940;SDS011;31858;46.008;8.978;2023-06-26T12:33:24;5.43;;;3.83;;
45940;SDS011;31858;46.008;8.978;2023-06-26T12:43:27;6.47;;;3.75;;
45940;SDS011;31858;46.008;8.978;2023-06-26T12:53:29;5.28;;;4.38;;
45940;SDS011;31858;46.008;8.978;2023-06-26T13:03:32;4.90;;;4.10;;
45940;SDS011;31858;46.008;8.978;2023-06-26T13:13:34;6.00;;;4.07;;
45940;SDS011;31858;46.008;8.978;2023-06-26T13:23:37;6.00;;;3.90;;
45940;SDS011;31858;46.008;8.978;2023-06-26T13:33:38;5.47;;;4.03;;
45940;SDS011;31858;46.008;8.978;2023-06-26T13:43:41;4.32;;;3.92;;
45940;SDS011;31858;46.008;8.978;2023-06-26T13:53:43;5.63;;;4.07;;
45940;SDS011;31858;46.008;8.978;2023-06-26T14:03:46;10.32;;;4.53;;
45940;SDS011;31858;46.008;8.978;2023-06-26T14:13:47;5.40;;;4.30;;
45940;SDS011;31858;46.008;8.978;2023-06-26T14:23:50;7.45;;;4.55;;
45940;SDS011;31858;46.008;8.978;2023-06-26T14:33:52;8.95;;;4.22;;
45940;SDS011;31858;46.008;8.978;2023-06-26T14:43:54;5.88;;;3.88;;
45940;SDS011;31858;46.008;8.978;2023-06-26T14:53:56;6.50;;;4.28;;
45940;SDS011;31858;46.008;8.978;2023-06-26T15:03:59;9.52;;;4.95;;
45940;SDS011;31858;46.008;8.978;2023-06-26T15:14:01;11.43;;;4.43;;
45940;SDS011;31858;46.008;8.978;2023-06-26T15:24:04;8.18;;;4.65;;
45940;SDS011;31858;46.008;8.978;2023-06-26T15:34:07;5.65;;;4.22;;
45940;SDS011;31858;46.008;8.978;2023-06-26T15:44:10;7.05;;;4.50;;
45940;SDS011;31858;46.008;8.978;2023-06-26T15:54:11;5.00;;;4.05;;
45940;SDS011;31858;46.008;8.978;2023-06-26T16:04:14;8.70;;;4.60;;
45940;SDS011;31858;46.008;8.978;2023-06-26T16:14:16;5.72;;;4.30;;
45940;SDS011;31858;46.008;8.978;2023-06-26T16:24:19;6.60;;;4.60;;
45940;SDS011;31858;46.008;8.978;2023-06-26T16:34:20;5.05;;;4.00;;
45940;SDS011;31858;46.008;8.978;2023-06-26T16:44:23;6.05;;;4.50;;
45940;SDS011;31858;46.008;8.978;2023-06-26T16:54:25;5.60;;;4.53;;
45940;SDS011;31858;46.008;8.978;2023-06-26T17:04:28;4.63;;;4.22;;
45940;SDS011;31858;46.008;8.978;2023-06-26T17:14:30;5.82;;;4.05;;
45940;SDS011;31858;46.008;8.978;2023-06-26T17:24:33;10.38;;;4.30;;
45940;SDS011;31858;46.008;8.978;2023-06-26T17:34:35;6.38;;;4.10;;
45940;SDS011;31858;46.008;8.978;2023-06-26T17:44:38;10.68;;;4.72;;
45940;SDS011;31858;46.008;8.978;2023-06-26T17:54:39;4.72;;;4.13;;
45940;SDS011;31858;46.008;8.978;2023-06-26T18:04:42;5.57;;;4.68;;
45940;SDS011;31858;46.008;8.978;2023-06-26T18:14:44;4.80;;;4.40;;
45940;SDS011;31858;46.008;8.978;2023-06-26T18:24:47;6.43;;;4.00;;
45940;SDS011;31858;46.008;8.978;2023-06-26T18:34:49;5.45;;;4.68;;
45940;SDS011;31858;46.008;8.978;2023-06-26T18:44:51;5.57;;;4.13;;
45940;SDS011;31858;46.008;8.978;2023-06-26T18:54:54;10.70;;;4.70;;
45940;SDS011;31858;46.008;8.978;2023-06-26T19:04:57;6.45;;;4.85;;
45940;SDS011;31858;46.008;8.978;2023-06-26T19:14:59;7.28;;;4.53;;
45940;SDS011;31858;46.008;8.978;2023-06-26T19:25:02;8.25;;;5.00;;
45940;SDS011;31858;46.008;8.978;2023-06-26T19:35:04;7.55;;;5.05;;
45940;SDS011;31858;46.008;8.978;2023-06-26T19:45:09;13.45;;;4.97;;
45940;SDS011;31858;46.008;8.978;2023-06-26T19:55:11;10.60;;;4.70;;
45940;SDS011;31858;46.008;8.978;2023-06-26T20:05:14;23.33;;;6.38;;
45940;SDS011;31858;46.008;8.978;2023-06-26T20:15:15;10.68;;;5.00;;
45940;SDS011;31858;46.008;8.978;2023-06-26T20:25:18;9.75;;;4.90;;
45940;SDS011;31858;46.008;8.978;2023-06-26T20:35:20;5.38;;;4.88;;
45940;SDS011;31858;46.008;8.978;2023-06-26T20:45:23;5.97;;;4.68;;
45940;SDS011;31858;46.008;8.978;2023-06-26T20:55:26;6.68;;;5.18;;
45940;SDS011;31858;46.008;8.978;2023-06-26T21:05:29;6.70;;;4.93;;
45940;SDS011;31858;46.008;8.978;2023-06-26T21:15:31;5.97;;;4.97;;
45940;SDS011;31858;46.008;8.978;2023-06-26T21:25:34;5.95;;;5.13;;
45940;SDS011;31858;46.008;8.978;2023-06-26T21:35:35;12.48;;;5.13;;
45940;SDS011;31858;46.008;8.978;2023-06-26T21:45:38;9.13;;;5.15;;
45940;SDS011;31858;46.008;8.978;2023-06-26T21:55:40;7.47;;;5.20;;
45940;SDS011;31858;46.008;8.978;2023-06-26T22:05:43;7.85;;;5.30;;
45940;SDS011;31858;46.008;8.978;2023-06-26T22:15:44;5.38;;;4.88;;
45940;SDS011;31858;46.008;8.978;2023-06-26T22:25:47;6.18;;;5.22;;
45940;SDS011;31858;46.008;8.978;2023-06-26T22:35:49;5.80;;;4.80;;
45940;SDS011;31858;46.008;8.978;2023-06-26T22:45:53;8.10;;;5.60;;
45940;SDS011;31858;46.008;8.978;2023-06-26T22:55:54;7.65;;;4.70;;
45940;SDS011;31858;46.008;8.978;2023-06-26T23:05:57;5.63;;;5.13;;
45940;SDS011;31858;46.008;8.978;2023-06-26T23:15:59;5.65;;;5.15;;
45940;SDS011;31858;46.008;8.978;2023-06-26T23:26:04;8.85;;;5.22;;
45940;SDS011;31858;46.008;8.978;2023-06-26T23:36:06;6.80;;;5.25;;
45940;SDS011;31858;46.008;8.978;2023-06-26T23:46:10;9.50;;;5.00;;
45940;SDS011;31858;46.008;8.978;2023-06-26T23:56:13;7.63;;;5.38;;
